sensor_id;sensor_type;location;lat;lon;timestamp;P1;durP1;ratioP1;P2;durP2;ratioP2
18104;SDS011;9179;50.968;3.134;2023-04-01T00:01:03;6.70;;;5.88;;
18104;SDS011;9179;50.968;3.134;2023-04-01T00:03:31;9.52;;;5.78;;
18104;SDS011;9179;50.968;3.134;2023-04-01T00:05:59;7.82;;;5.80;;
18104;SDS011;9179;50.968;3.134;2023-04-01T00:08:27;11.43;;;6.60;;
18104;SDS011;9179;50.968;3.134;2023-04-01T00:10:56;11.30;;;6.88;;
18104;SDS011;9179;50.968;3.134;2023-04-01T00:13:23;6.82;;;4.90;;
18104;SDS011;9179;50.968;3.134;2023-04-01T00:15:51;5.72;;;4.72;;
18104;SDS011;9179;50.968;3.134;2023-04-01T00:18:19;9.95;;;4.68;;
18104;SDS011;9179;50.968;3.134;2023-04-01T00:20:46;9.30;;;4.53;;
18104;SDS011;9179;50.968;3.134;2023-04-01T00:23:15;6.68;;;3.95;;
18104;SDS011;9179;50.968;3.134;2023-04-01T00:25:43;5.28;;;3.30;;
18104;SDS011;9179;50.968;3.134;2023-04-01T00:28:14;8.65;;;4.40;;
18104;SDS011;9179;50.968;3.134;2023-04-01T00:30:41;7.55;;;3.85;;
18104;SDS011;9179;50.968;3.134;2023-04-01T00:33:08;11.18;;;4.15;;
18104;SDS011;9179;50.968;3.134;2023-04-01T00:35:35;7.75;;;4.22;;
18104;SDS011;9179;50.968;3.134;2023-04-01T00:38:02;8.50;;;4.40;;
18104;SDS011;9179;50.968;3.134;2023-04-01T00:40:31;9.63;;;4.13;;
18104;SDS011;9179;50.968;3.134;2023-04-01T00:42:59;9.60;;;4.30;;
18104;SDS011;9179;50.968;3.134;2023-04-01T00:45:30;5.10;;;3.53;;
18104;SDS011;9179;50.968;3.134;2023-04-01T00:48:01;10.02;;;4.57;;
18104;SDS011;9179;50.968;3.134;2023-04-01T00:50:32;9.68;;;4.93;;
18104;SDS011;9179;50.968;3.134;2023-04-01T00:53:00;7.78;;;3.35;;
18104;SDS011;9179;50.968;3.134;2023-04-01T00:55:29;8.38;;;3.90;;
18104;SDS011;9179;50.968;3.134;2023-04-01T00:57:58;6.78;;;4.55;;
18104;SDS011;9179;50.968;3.134;2023-04-01T01:00:29;6.43;;;4.50;;
18104;SDS011;9179;50.968;3.134;2023-04-01T01:02:56;5.60;;;4.43;;
18104;SDS011;9179;50.968;3.134;2023-04-01T01:05:25;16.08;;;4.70;;
18104;SDS011;9179;50.968;3.134;2023-04-01T01:08:03;6.72;;;4.95;;
18104;SDS011;9179;50.968;3.134;2023-04-01T01:10:39;5.57;;;5.03;;
18104;SDS011;9179;50.968;3.134;2023-04-01T01:13:08;8.70;;;5.20;;
18104;SDS011;9179;50.968;3.134;2023-04-01T01:15:44;14.98;;;5.88;;
18104;SDS011;9179;50.968;3.134;2023-04-01T01:18:16;8.02;;;4.43;;
18104;SDS011;9179;50.968;3.134;2023-04-01T01:24:11;8.85;;;5.18;;
18104;SDS011;9179;50.968;3.134;2023-04-01T01:26:56;9.38;;;4.40;;
18104;SDS011;9179;50.968;3.134;2023-04-01T01:32:51;11.75;;;7.80;;
18104;SDS011;9179;50.968;3.134;2023-04-01T01:35:29;7.75;;;5.65;;
18104;SDS011;9179;50.968;3.134;2023-04-01T01:38:01;9.48;;;5.78;;
18104;SDS011;9179;50.968;3.134;2023-04-01T01:40:31;12.48;;;5.25;;
18104;SDS011;9179;50.968;3.134;2023-04-01T01:43:04;8.65;;;6.05;;
18104;SDS011;9179;50.968;3.134;2023-04-01T01:45:35;11.98;;;5.05;;
18104;SDS011;9179;50.968;3.134;2023-04-01T01:48:06;11.35;;;5.97;;
18104;SDS011;9179;50.968;3.134;2023-04-01T01:50:36;9.35;;;4.20;;
18104;SDS011;9179;50.968;3.134;2023-04-01T01:53:06;8.32;;;4.05;;
18104;SDS011;9179;50.968;3.134;2023-04-01T01:55:35;12.73;;;5.43;;
18104;SDS011;9179;50.968;3.134;2023-04-01T01:58:04;9.25;;;5.10;;
18104;SDS011;9179;50.968;3.134;2023-04-01T02:00:35;8.27;;;6.18;;
18104;SDS011;9179;50.968;3.134;2023-04-01T02:03:03;5.45;;;4.93;;
18104;SDS011;9179;50.968;3.134;2023-04-01T02:05:31;11.27;;;5.50;;
18104;SDS011;9179;50.968;3.134;2023-04-01T02:08:02;12.07;;;5.20;;
18104;SDS011;9179;50.968;3.134;2023-04-01T02:10:34;6.90;;;4.30;;
18104;SDS011;9179;50.968;3.134;2023-04-01T02:13:05;7.90;;;5.18;;
18104;SDS011;9179;50.968;3.134;2023-04-01T02:15:37;8.68;;;4.38;;
18104;SDS011;9179;50.968;3.134;2023-04-01T02:18:09;10.07;;;6.05;;
18104;SDS011;9179;50.968;3.134;2023-04-01T02:20:36;6.53;;;4.38;;
18104;SDS011;9179;50.968;3.134;2023-04-01T02:23:06;10.15;;;4.30;;
18104;SDS011;9179;50.968;3.134;2023-04-01T02:25:35;8.60;;;4.95;;
18104;SDS011;9179;50.968;3.134;2023-04-01T02:28:04;11.93;;;4.63;;
18104;SDS011;9179;50.968;3.134;2023-04-01T02:30:33;7.13;;;4.55;;
18104;SDS011;9179;50.968;3.134;2023-04-01T02:33:03;6.18;;;4.07;;
18104;SDS011;9179;50.968;3.134;2023-04-01T02:35:32;9.85;;;4.25;;
18104;SDS011;9179;50.968;3.134;2023-04-01T02:38:00;6.60;;;5.93;;
18104;SDS011;9179;50.968;3.134;2023-04-01T02:40:29;5.10;;;3.63;;
18104;SDS011;9179;50.968;3.134;2023-04-01T02:43:06;5.65;;;4.70;;
18104;SDS011;9179;50.968;3.134;2023-04-01T02:45:33;11.52;;;5.97;;
18104;SDS011;9179;50.968;3.134;2023-04-01T02:48:00;9.25;;;4.72;;
18104;SDS011;9179;50.968;3.134;2023-04-01T02:50:27;6.72;;;5.88;;
18104;SDS011;9179;50.968;3.134;2023-04-01T02:52:54;10.13;;;5.85;;
18104;SDS011;9179;50.968;3.134;2023-04-01T02:55:21;6.90;;;6.20;;
18104;SDS011;9179;50.968;3.134;2023-04-01T02:57:49;8.27;;;5.97;;
18104;SDS011;9179;50.968;3.134;2023-04-01T03:00:17;9.93;;;5.60;;
18104;SDS011;9179;50.968;3.134;2023-04-01T03:02:44;7.35;;;6.50;;
18104;SDS011;9179;50.968;3.134;2023-04-01T03:05:11;10.30;;;6.75;;
18104;SDS011;9179;50.968;3.134;2023-04-01T03:07:38;9.05;;;6.25;;
18104;SDS011;9179;50.968;3.134;2023-04-01T03:10:05;9.32;;;6.97;;
18104;SDS011;9179;50.968;3.134;2023-04-01T03:12:33;7.55;;;5.80;;
18104;SDS011;9179;50.968;3.134;2023-04-01T03:15:01;7.72;;;6.35;;
18104;SDS011;9179;50.968;3.134;2023-04-01T03:17:29;9.02;;;6.30;;
18104;SDS011;9179;50.968;3.134;2023-04-01T03:19:56;8.80;;;6.25;;
18104;SDS011;9179;50.968;3.134;2023-04-01T03:22:23;7.10;;;5.53;;
18104;SDS011;9179;50.968;3.134;2023-04-01T03:24:50;7.88;;;6.15;;
18104;SDS011;9179;50.968;3.134;2023-04-01T03:27:17;9.90;;;7.72;;
18104;SDS011;9179;50.968;3.134;2023-04-01T03:29:44;8.48;;;6.70;;
18104;SDS011;9179;50.968;3.134;2023-04-01T03:32:12;9.32;;;6.38;;
18104;SDS011;9179;50.968;3.134;2023-04-01T03:34:40;6.30;;;5.57;;
18104;SDS011;9179;50.968;3.134;2023-04-01T03:37:07;11.13;;;6.38;;
18104;SDS011;9179;50.968;3.134;2023-04-01T03:39:33;13.00;;;7.72;;
18104;SDS011;9179;50.968;3.134;2023-04-01T03:42:01;9.75;;;5.93;;
18104;SDS011;9179;50.968;3.134;2023-04-01T03:44:30;10.82;;;7.05;;
18104;SDS011;9179;50.968;3.134;2023-04-01T03:46:57;10.77;;;7.43;;
18104;SDS011;9179;50.968;3.134;2023-04-01T03:49:26;8.77;;;7.53;;
18104;SDS011;9179;50.968;3.134;2023-04-01T03:51:53;10.60;;;7.10;;
18104;SDS011;9179;50.968;3.134;2023-04-01T03:54:20;10.15;;;6.57;;
18104;SDS011;9179;50.968;3.134;2023-04-01T03:56:47;8.27;;;7.30;;
18104;SDS011;9179;50.968;3.134;2023-04-01T03:59:14;10.02;;;7.35;;
18104;SDS011;9179;50.968;3.134;2023-04-01T04:01:41;10.35;;;6.65;;
18104;SDS011;9179;50.968;3.134;2023-04-01T04:04:10;8.88;;;5.80;;
18104;SDS011;9179;50.968;3.134;2023-04-01T04:06:39;8.38;;;6.50;;
18104;SDS011;9179;50.968;3.134;2023-04-01T04:09:06;12.57;;;6.70;;
18104;SDS011;9179;50.968;3.134;2023-04-01T04:11:33;7.15;;;6.07;;
18104;SDS011;9179;50.968;3.134;2023-04-01T04:14:00;9.50;;;5.82;;
18104;SDS011;9179;50.968;3.134;2023-04-01T04:16:28;7.88;;;6.80;;
18104;SDS011;9179;50.968;3.134;2023-04-01T04:18:55;8.13;;;5.53;;
18104;SDS011;9179;50.968;3.134;2023-04-01T04:21:22;6.45;;;4.88;;
18104;SDS011;9179;50.968;3.134;2023-04-01T04:23:50;6.75;;;5.53;;
18104;SDS011;9179;50.968;3.134;2023-04-01T04:26:17;5.80;;;5.22;;
18104;SDS011;9179;50.968;3.134;2023-04-01T04:28:44;6.10;;;5.50;;
18104;SDS011;9179;50.968;3.134;2023-04-01T04:31:11;7.05;;;5.93;;
18104;SDS011;9179;50.968;3.134;2023-04-01T04:33:44;7.07;;;5.72;;
18104;SDS011;9179;50.968;3.134;2023-04-01T04:36:11;8.13;;;5.38;;
18104;SDS011;9179;50.968;3.134;2023-04-01T04:38:37;8.82;;;4.82;;
18104;SDS011;9179;50.968;3.134;2023-04-01T04:41:09;7.20;;;5.50;;
18104;SDS011;9179;50.968;3.134;2023-04-01T04:43:36;5.68;;;5.03;;
18104;SDS011;9179;50.968;3.134;2023-04-01T04:46:04;5.25;;;4.70;;
18104;SDS011;9179;50.968;3.134;2023-04-01T04:48:32;8.20;;;4.75;;
18104;SDS011;9179;50.968;3.134;2023-04-01T04:50:59;7.85;;;5.72;;
18104;SDS011;9179;50.968;3.134;2023-04-01T04:53:26;9.40;;;5.47;;
18104;SDS011;9179;50.968;3.134;2023-04-01T04:55:53;6.05;;;4.25;;
18104;SDS011;9179;50.968;3.134;2023-04-01T04:58:22;6.07;;;4.57;;
18104;SDS011;9179;50.968;3.134;2023-04-01T05:00:49;6.45;;;4.80;;
18104;SDS011;9179;50.968;3.134;2023-04-01T05:03:15;5.50;;;5.05;;
18104;SDS011;9179;50.968;3.134;2023-04-01T05:05:47;7.40;;;5.80;;
18104;SDS011;9179;50.968;3.134;2023-04-01T05:08:16;6.75;;;4.55;;
18104;SDS011;9179;50.968;3.134;2023-04-01T05:10:43;6.90;;;5.68;;
18104;SDS011;9179;50.968;3.134;2023-04-01T05:13:10;9.75;;;8.35;;
18104;SDS011;9179;50.968;3.134;2023-04-01T05:15:38;6.07;;;5.22;;
18104;SDS011;9179;50.968;3.134;2023-04-01T05:18:05;7.78;;;5.57;;
18104;SDS011;9179;50.968;3.134;2023-04-01T05:20:32;6.93;;;5.30;;
18104;SDS011;9179;50.968;3.134;2023-04-01T05:22:59;6.18;;;5.57;;
18104;SDS011;9179;50.968;3.134;2023-04-01T05:25:27;7.25;;;5.45;;
18104;SDS011;9179;50.968;3.134;2023-04-01T05:27:54;8.10;;;5.25;;
18104;SDS011;9179;50.968;3.134;2023-04-01T05:30:21;7.20;;;6.00;;
18104;SDS011;9179;50.968;3.134;2023-04-01T05:32:49;6.47;;;5.88;;
18104;SDS011;9179;50.968;3.134;2023-04-01T05:35:16;8.43;;;6.20;;
18104;SDS011;9179;50.968;3.134;2023-04-01T05:37:43;9.40;;;5.75;;
18104;SDS011;9179;50.968;3.134;2023-04-01T05:40:10;6.40;;;4.90;;
18104;SDS011;9179;50.968;3.134;2023-04-01T05:42:37;7.03;;;5.35;;
18104;SDS011;9179;50.968;3.134;2023-04-01T05:45:05;5.60;;;5.10;;
18104;SDS011;9179;50.968;3.134;2023-04-01T05:47:33;6.40;;;4.03;;
18104;SDS011;9179;50.968;3.134;2023-04-01T05:50:02;4.72;;;4.15;;
18104;SDS011;9179;50.968;3.134;2023-04-01T05:52:29;5.05;;;4.55;;
18104;SDS011;9179;50.968;3.134;2023-04-01T05:54:56;4.60;;;4.28;;
18104;SDS011;9179;50.968;3.134;2023-04-01T05:57:24;5.45;;;4.55;;
18104;SDS011;9179;50.968;3.134;2023-04-01T05:59:51;6.50;;;4.32;;
18104;SDS011;9179;50.968;3.134;2023-04-01T06:02:18;4.80;;;3.97;;
18104;SDS011;9179;50.968;3.134;2023-04-01T06:04:45;6.03;;;4.30;;
18104;SDS011;9179;50.968;3.134;2023-04-01T06:07:13;5.68;;;5.18;;
18104;SDS011;9179;50.968;3.134;2023-04-01T06:09:41;5.53;;;4.15;;
18104;SDS011;9179;50.968;3.134;2023-04-01T06:15:18;3.72;;;3.20;;
18104;SDS011;9179;50.968;3.134;2023-04-01T06:17:55;6.15;;;3.38;;
18104;SDS011;9179;50.968;3.134;2023-04-01T06:20:42;4.75;;;3.63;;
18104;SDS011;9179;50.968;3.134;2023-04-01T06:23:22;4.35;;;4.00;;
18104;SDS011;9179;50.968;3.134;2023-04-01T06:26:12;2.85;;;2.65;;
18104;SDS011;9179;50.968;3.134;2023-04-01T06:28:57;5.75;;;3.20;;
18104;SDS011;9179;50.968;3.134;2023-04-01T06:31:47;4.25;;;3.85;;
18104;SDS011;9179;50.968;3.134;2023-04-01T06:34:37;5.43;;;4.93;;
18104;SDS011;9179;50.968;3.134;2023-04-01T06:40:31;3.65;;;2.85;;
18104;SDS011;9179;50.968;3.134;2023-04-01T06:43:12;2.85;;;2.65;;
18104;SDS011;9179;50.968;3.134;2023-04-01T06:45:46;3.88;;;2.92;;
18104;SDS011;9179;50.968;3.134;2023-04-01T06:48:25;3.67;;;3.38;;
18104;SDS011;9179;50.968;3.134;2023-04-01T06:51:02;3.40;;;3.10;;
18104;SDS011;9179;50.968;3.134;2023-04-01T06:53:38;4.10;;;3.67;;
18104;SDS011;9179;50.968;3.134;2023-04-01T06:56:15;3.58;;;3.28;;
18104;SDS011;9179;50.968;3.134;2023-04-01T06:58:46;4.53;;;2.60;;
18104;SDS011;9179;50.968;3.134;2023-04-01T07:01:16;3.15;;;2.85;;
18104;SDS011;9179;50.968;3.134;2023-04-01T07:03:49;3.28;;;3.03;;
18104;SDS011;9179;50.968;3.134;2023-04-01T07:06:22;4.72;;;3.03;;
18104;SDS011;9179;50.968;3.134;2023-04-01T07:08:53;3.00;;;2.70;;
18104;SDS011;9179;50.968;3.134;2023-04-01T07:11:24;2.92;;;2.38;;
18104;SDS011;9179;50.968;3.134;2023-04-01T07:13:54;3.97;;;3.10;;
18104;SDS011;9179;50.968;3.134;2023-04-01T07:16:26;4.55;;;3.05;;
18104;SDS011;9179;50.968;3.134;2023-04-01T07:18:58;2.80;;;2.60;;
18104;SDS011;9179;50.968;3.134;2023-04-01T07:21:29;3.28;;;3.00;;
18104;SDS011;9179;50.968;3.134;2023-04-01T07:24:01;3.50;;;3.20;;
18104;SDS011;9179;50.968;3.134;2023-04-01T07:26:33;4.47;;;2.60;;
18104;SDS011;9179;50.968;3.134;2023-04-01T07:29:00;3.67;;;2.50;;
18104;SDS011;9179;50.968;3.134;2023-04-01T07:31:34;2.85;;;2.65;;
18104;SDS011;9179;50.968;3.134;2023-04-01T07:34:12;3.15;;;2.72;;
18104;SDS011;9179;50.968;3.134;2023-04-01T07:36:47;2.53;;;2.33;;
18104;SDS011;9179;50.968;3.134;2023-04-01T07:39:24;4.32;;;2.78;;
18104;SDS011;9179;50.968;3.134;2023-04-01T07:42:01;1.95;;;1.80;;
18104;SDS011;9179;50.968;3.134;2023-04-01T07:44:35;3.40;;;3.05;;
18104;SDS011;9179;50.968;3.134;2023-04-01T07:47:12;2.33;;;2.13;;
18104;SDS011;9179;50.968;3.134;2023-04-01T07:49:57;3.20;;;2.20;;
18104;SDS011;9179;50.968;3.134;2023-04-01T07:52:36;2.50;;;2.00;;
18104;SDS011;9179;50.968;3.134;2023-04-01T07:55:09;1.95;;;1.77;;
18104;SDS011;9179;50.968;3.134;2023-04-01T07:57:46;2.92;;;2.25;;
18104;SDS011;9179;50.968;3.134;2023-04-01T08:00:19;3.97;;;2.03;;
18104;SDS011;9179;50.968;3.134;2023-04-01T08:02:56;5.00;;;2.58;;
18104;SDS011;9179;50.968;3.134;2023-04-01T08:05:40;2.67;;;2.47;;
18104;SDS011;9179;50.968;3.134;2023-04-01T08:08:13;3.33;;;2.20;;
18104;SDS011;9179;50.968;3.134;2023-04-01T08:10:47;3.17;;;2.42;;
18104;SDS011;9179;50.968;3.134;2023-04-01T08:13:23;2.63;;;2.22;;
18104;SDS011;9179;50.968;3.134;2023-04-01T08:16:01;2.70;;;1.95;;
18104;SDS011;9179;50.968;3.134;2023-04-01T08:18:36;3.58;;;2.15;;
18104;SDS011;9179;50.968;3.134;2023-04-01T08:21:07;4.60;;;3.20;;
18104;SDS011;9179;50.968;3.134;2023-04-01T08:23:40;2.72;;;2.47;;
18104;SDS011;9179;50.968;3.134;2023-04-01T08:26:12;4.30;;;1.90;;
18104;SDS011;9179;50.968;3.134;2023-04-01T08:28:49;4.53;;;3.47;;
18104;SDS011;9179;50.968;3.134;2023-04-01T08:31:22;3.83;;;2.35;;
18104;SDS011;9179;50.968;3.134;2023-04-01T08:33:56;2.47;;;2.22;;
18104;SDS011;9179;50.968;3.134;2023-04-01T08:36:24;4.85;;;3.13;;
18104;SDS011;9179;50.968;3.134;2023-04-01T08:38:57;2.70;;;1.95;;
18104;SDS011;9179;50.968;3.134;2023-04-01T08:41:37;2.53;;;2.33;;
18104;SDS011;9179;50.968;3.134;2023-04-01T08:44:32;2.95;;;2.25;;
18104;SDS011;9179;50.968;3.134;2023-04-01T08:50:27;3.90;;;2.20;;
18104;SDS011;9179;50.968;3.134;2023-04-01T08:53:15;3.30;;;3.00;;
18104;SDS011;9179;50.968;3.134;2023-04-01T08:55:51;2.83;;;2.58;;
18104;SDS011;9179;50.968;3.134;2023-04-01T08:58:42;6.05;;;2.15;;
18104;SDS011;9179;50.968;3.134;2023-04-01T09:01:36;3.65;;;2.05;;
18104;SDS011;9179;50.968;3.134;2023-04-01T09:04:22;1.60;;;1.50;;
18104;SDS011;9179;50.968;3.134;2023-04-01T09:07:05;1.50;;;1.40;;
18104;SDS011;9179;50.968;3.134;2023-04-01T09:09:50;1.75;;;1.65;;
18104;SDS011;9179;50.968;3.134;2023-04-01T09:12:43;2.50;;;1.60;;
18104;SDS011;9179;50.968;3.134;2023-04-01T09:15:27;1.90;;;1.45;;
18104;SDS011;9179;50.968;3.134;2023-04-01T09:18:38;1.80;;;1.45;;
18104;SDS011;9179;50.968;3.134;2023-04-01T09:21:24;3.10;;;1.77;;
18104;SDS011;9179;50.968;3.134;2023-04-01T09:24:15;1.25;;;1.17;;
18104;SDS011;9179;50.968;3.134;2023-04-01T09:27:03;1.52;;;1.40;;
18104;SDS011;9179;50.968;3.134;2023-04-01T09:29:44;0.90;;;0.90;;
18104;SDS011;9179;50.968;3.134;2023-04-01T09:32:33;1.08;;;1.08;;
18104;SDS011;9179;50.968;3.134;2023-04-01T09:35:42;1.48;;;1.30;;
18104;SDS011;9179;50.968;3.134;2023-04-01T09:38:22;1.80;;;1.08;;
18104;SDS011;9179;50.968;3.134;2023-04-01T09:40:55;2.97;;;1.38;;
18104;SDS011;9179;50.968;3.134;2023-04-01T09:43:27;3.17;;;1.33;;
18104;SDS011;9179;50.968;3.134;2023-04-01T09:46:04;1.88;;;1.77;;
18104;SDS011;9179;50.968;3.134;2023-04-01T09:48:53;4.35;;;1.75;;
18104;SDS011;9179;50.968;3.134;2023-04-01T09:51:48;3.90;;;2.33;;
18104;SDS011;9179;50.968;3.134;2023-04-01T09:54:26;1.98;;;1.50;;
18104;SDS011;9179;50.968;3.134;2023-04-01T10:00:16;1.73;;;1.63;;
18104;SDS011;9179;50.968;3.134;2023-04-01T10:03:15;5.13;;;1.80;;
18104;SDS011;9179;50.968;3.134;2023-04-01T10:18:56;2.05;;;1.55;;
18104;SDS011;9179;50.968;3.134;2023-04-01T10:21:57;1.60;;;1.50;;
18104;SDS011;9179;50.968;3.134;2023-04-01T10:24:59;1.90;;;1.42;;
18104;SDS011;9179;50.968;3.134;2023-04-01T10:28:02;1.55;;;1.45;;
18104;SDS011;9179;50.968;3.134;2023-04-01T10:30:52;1.60;;;1.50;;
18104;SDS011;9179;50.968;3.134;2023-04-01T10:36:50;2.15;;;1.95;;
18104;SDS011;9179;50.968;3.134;2023-04-01T10:42:38;1.13;;;1.02;;
18104;SDS011;9179;50.968;3.134;2023-04-01T10:48:56;3.10;;;1.20;;
18104;SDS011;9179;50.968;3.134;2023-04-01T10:51:48;3.10;;;2.38;;
18104;SDS011;9179;50.968;3.134;2023-04-01T10:54:40;1.35;;;1.25;;
18104;SDS011;9179;50.968;3.134;2023-04-01T11:00:20;4.07;;;1.63;;
18104;SDS011;9179;50.968;3.134;2023-04-01T11:06:21;1.50;;;1.40;;
18104;SDS011;9179;50.968;3.134;2023-04-01T11:18:20;2.58;;;1.70;;
18104;SDS011;9179;50.968;3.134;2023-04-01T11:21:39;3.78;;;1.55;;
18104;SDS011;9179;50.968;3.134;2023-04-01T11:30:26;1.70;;;1.60;;
18104;SDS011;9179;50.968;3.134;2023-04-01T11:33:00;2.17;;;1.77;;
18104;SDS011;9179;50.968;3.134;2023-04-01T11:35:36;1.58;;;1.38;;
18104;SDS011;9179;50.968;3.134;2023-04-01T11:38:22;2.28;;;1.73;;
18104;SDS011;9179;50.968;3.134;2023-04-01T11:41:02;1.52;;;1.15;;
18104;SDS011;9179;50.968;3.134;2023-04-01T11:44:01;2.10;;;1.38;;
18104;SDS011;9179;50.968;3.134;2023-04-01T11:46:39;1.92;;;1.80;;
18104;SDS011;9179;50.968;3.134;2023-04-01T11:49:21;1.38;;;1.27;;
18104;SDS011;9179;50.968;3.134;2023-04-01T11:52:15;1.98;;;1.88;;
18104;SDS011;9179;50.968;3.134;2023-04-01T11:55:02;2.60;;;1.20;;
18104;SDS011;9179;50.968;3.134;2023-04-01T11:57:48;1.40;;;1.15;;
18104;SDS011;9179;50.968;3.134;2023-04-01T12:00:35;1.10;;;1.00;;
18104;SDS011;9179;50.968;3.134;2023-04-01T12:03:35;0.90;;;0.90;;
18104;SDS011;9179;50.968;3.134;2023-04-01T12:06:28;1.02;;;0.90;;
18104;SDS011;9179;50.968;3.134;2023-04-01T12:09:01;1.10;;;1.00;;
18104;SDS011;9179;50.968;3.134;2023-04-01T12:11:35;1.38;;;1.30;;
18104;SDS011;9179;50.968;3.134;2023-04-01T12:14:13;1.35;;;1.08;;
18104;SDS011;9179;50.968;3.134;2023-04-01T12:16:57;0.95;;;0.95;;
18104;SDS011;9179;50.968;3.134;2023-04-01T12:19:33;2.13;;;1.00;;
18104;SDS011;9179;50.968;3.134;2023-04-01T12:22:13;0.88;;;0.88;;
18104;SDS011;9179;50.968;3.134;2023-04-01T12:24:56;1.05;;;0.95;;
18104;SDS011;9179;50.968;3.134;2023-04-01T12:27:32;0.93;;;0.93;;
18104;SDS011;9179;50.968;3.134;2023-04-01T12:33:37;0.98;;;0.98;;
18104;SDS011;9179;50.968;3.134;2023-04-01T12:36:19;1.50;;;1.02;;
18104;SDS011;9179;50.968;3.134;2023-04-01T12:39:08;1.10;;;1.10;;
18104;SDS011;9179;50.968;3.134;2023-04-01T12:41:59;1.58;;;0.88;;
18104;SDS011;9179;50.968;3.134;2023-04-01T12:44:38;1.50;;;1.10;;
18104;SDS011;9179;50.968;3.134;2023-04-01T12:47:21;1.00;;;1.00;;
18104;SDS011;9179;50.968;3.134;2023-04-01T12:53:18;1.42;;;1.33;;
18104;SDS011;9179;50.968;3.134;2023-04-01T12:56:02;1.65;;;1.52;;
18104;SDS011;9179;50.968;3.134;2023-04-01T12:58:43;1.35;;;1.25;;
18104;SDS011;9179;50.968;3.134;2023-04-01T13:07:31;2.35;;;1.52;;
18104;SDS011;9179;50.968;3.134;2023-04-01T13:10:13;2.70;;;1.65;;
18104;SDS011;9179;50.968;3.134;2023-04-01T13:13:05;3.33;;;1.90;;
18104;SDS011;9179;50.968;3.134;2023-04-01T13:15:45;3.20;;;1.45;;
18104;SDS011;9179;50.968;3.134;2023-04-01T13:18:19;1.90;;;1.60;;
18104;SDS011;9179;50.968;3.134;2023-04-01T13:20:54;2.70;;;1.33;;
18104;SDS011;9179;50.968;3.134;2023-04-01T13:23:35;1.05;;;1.05;;
18104;SDS011;9179;50.968;3.134;2023-04-01T13:26:17;1.42;;;1.33;;
18104;SDS011;9179;50.968;3.134;2023-04-01T13:28:50;2.38;;;1.50;;
18104;SDS011;9179;50.968;3.134;2023-04-01T13:31:29;1.33;;;1.23;;
18104;SDS011;9179;50.968;3.134;2023-04-01T13:34:17;1.92;;;1.73;;
18104;SDS011;9179;50.968;3.134;2023-04-01T13:36:56;1.60;;;1.42;;
18104;SDS011;9179;50.968;3.134;2023-04-01T13:39:46;1.30;;;1.20;;
18104;SDS011;9179;50.968;3.134;2023-04-01T13:42:22;2.67;;;1.60;;
18104;SDS011;9179;50.968;3.134;2023-04-01T13:44:54;2.75;;;1.30;;
18104;SDS011;9179;50.968;3.134;2023-04-01T13:47:41;2.30;;;1.00;;
18104;SDS011;9179;50.968;3.134;2023-04-01T13:50:34;1.10;;;1.00;;
18104;SDS011;9179;50.968;3.134;2023-04-01T13:53:27;1.02;;;1.02;;
18104;SDS011;9179;50.968;3.134;2023-04-01T13:56:18;3.30;;;1.30;;
18104;SDS011;9179;50.968;3.134;2023-04-01T13:59:04;1.60;;;1.45;;
18104;SDS011;9179;50.968;3.134;2023-04-01T14:01:57;3.05;;;1.40;;
18104;SDS011;9179;50.968;3.134;2023-04-01T14:04:41;1.73;;;1.25;;
18104;SDS011;9179;50.968;3.134;2023-04-01T14:07:32;2.00;;;1.40;;
18104;SDS011;9179;50.968;3.134;2023-04-01T14:10:16;1.02;;;1.02;;
18104;SDS011;9179;50.968;3.134;2023-04-01T14:12:49;1.15;;;1.13;;
18104;SDS011;9179;50.968;3.134;2023-04-01T14:15:26;1.70;;;1.40;;
18104;SDS011;9179;50.968;3.134;2023-04-01T14:18:17;2.13;;;1.45;;
18104;SDS011;9179;50.968;3.134;2023-04-01T14:21:04;1.90;;;1.73;;
18104;SDS011;9179;50.968;3.134;2023-04-01T14:29:48;2.97;;;1.88;;
18104;SDS011;9179;50.968;3.134;2023-04-01T14:32:28;1.50;;;1.40;;
18104;SDS011;9179;50.968;3.134;2023-04-01T14:35:16;2.45;;;1.50;;
18104;SDS011;9179;50.968;3.134;2023-04-01T14:38:02;1.73;;;1.63;;
18104;SDS011;9179;50.968;3.134;2023-04-01T14:40:45;2.47;;;1.48;;
18104;SDS011;9179;50.968;3.134;2023-04-01T14:43:31;1.88;;;1.38;;
18104;SDS011;9179;50.968;3.134;2023-04-01T14:46:32;1.65;;;1.55;;
18104;SDS011;9179;50.968;3.134;2023-04-01T14:49:17;3.13;;;1.45;;
18104;SDS011;9179;50.968;3.134;2023-04-01T14:51:48;3.30;;;1.77;;
18104;SDS011;9179;50.968;3.134;2023-04-01T14:54:18;2.90;;;1.75;;
18104;SDS011;9179;50.968;3.134;2023-04-01T14:56:50;4.55;;;2.20;;
18104;SDS011;9179;50.968;3.134;2023-04-01T14:59:27;2.65;;;2.30;;
18104;SDS011;9179;50.968;3.134;2023-04-01T15:01:58;2.20;;;1.92;;
18104;SDS011;9179;50.968;3.134;2023-04-01T15:04:37;2.17;;;1.60;;
18104;SDS011;9179;50.968;3.134;2023-04-01T15:07:29;5.63;;;3.03;;
18104;SDS011;9179;50.968;3.134;2023-04-01T15:10:18;2.30;;;1.98;;
18104;SDS011;9179;50.968;3.134;2023-04-01T15:13:07;2.72;;;2.00;;
18104;SDS011;9179;50.968;3.134;2023-04-01T15:15:41;3.10;;;1.75;;
18104;SDS011;9179;50.968;3.134;2023-04-01T15:18:22;3.03;;;2.10;;
18104;SDS011;9179;50.968;3.134;2023-04-01T15:21:09;2.22;;;2.03;;
18104;SDS011;9179;50.968;3.134;2023-04-01T15:23:50;4.78;;;4.15;;
18104;SDS011;9179;50.968;3.134;2023-04-01T15:26:37;1.67;;;1.58;;
18104;SDS011;9179;50.968;3.134;2023-04-01T15:29:25;6.72;;;2.55;;
18104;SDS011;9179;50.968;3.134;2023-04-01T15:32:05;2.22;;;1.95;;
18104;SDS011;9179;50.968;3.134;2023-04-01T15:34:45;3.35;;;1.80;;
18104;SDS011;9179;50.968;3.134;2023-04-01T15:37:18;3.08;;;1.80;;
18104;SDS011;9179;50.968;3.134;2023-04-01T15:39:57;3.97;;;2.38;;
18104;SDS011;9179;50.968;3.134;2023-04-01T15:42:43;2.70;;;2.10;;
18104;SDS011;9179;50.968;3.134;2023-04-01T15:45:26;4.35;;;2.88;;
18104;SDS011;9179;50.968;3.134;2023-04-01T15:48:06;2.72;;;2.30;;
18104;SDS011;9179;50.968;3.134;2023-04-01T15:53:53;3.17;;;2.60;;
18104;SDS011;9179;50.968;3.134;2023-04-01T15:56:42;9.38;;;2.30;;
18104;SDS011;9179;50.968;3.134;2023-04-01T15:59:20;4.70;;;2.35;;
18104;SDS011;9179;50.968;3.134;2023-04-01T16:01:56;4.03;;;3.30;;
18104;SDS011;9179;50.968;3.134;2023-04-01T16:04:40;2.50;;;2.25;;
18104;SDS011;9179;50.968;3.134;2023-04-01T16:07:20;6.60;;;2.78;;
18104;SDS011;9179;50.968;3.134;2023-04-01T16:09:59;5.18;;;3.03;;
18104;SDS011;9179;50.968;3.134;2023-04-01T16:12:43;5.65;;;2.97;;
18104;SDS011;9179;50.968;3.134;2023-04-01T16:15:21;8.15;;;2.88;;
18104;SDS011;9179;50.968;3.134;2023-04-01T16:17:56;6.50;;;1.90;;
18104;SDS011;9179;50.968;3.134;2023-04-01T16:20:46;3.22;;;1.88;;
18104;SDS011;9179;50.968;3.134;2023-04-01T16:23:22;2.83;;;2.55;;
18104;SDS011;9179;50.968;3.134;2023-04-01T16:25:57;4.32;;;2.30;;
18104;SDS011;9179;50.968;3.134;2023-04-01T16:28:29;5.22;;;1.80;;
18104;SDS011;9179;50.968;3.134;2023-04-01T16:31:05;3.85;;;2.10;;
18104;SDS011;9179;50.968;3.134;2023-04-01T16:33:39;3.83;;;2.10;;
18104;SDS011;9179;50.968;3.134;2023-04-01T16:36:17;2.47;;;2.08;;
18104;SDS011;9179;50.968;3.134;2023-04-01T16:38:52;2.75;;;1.75;;
18104;SDS011;9179;50.968;3.134;2023-04-01T16:41:35;5.75;;;2.00;;
18104;SDS011;9179;50.968;3.134;2023-04-01T16:44:13;2.75;;;1.70;;
18104;SDS011;9179;50.968;3.134;2023-04-01T16:46:46;1.75;;;1.42;;
18104;SDS011;9179;50.968;3.134;2023-04-01T16:49:23;3.75;;;2.45;;
18104;SDS011;9179;50.968;3.134;2023-04-01T16:51:54;3.65;;;1.70;;
18104;SDS011;9179;50.968;3.134;2023-04-01T16:54:35;3.38;;;1.70;;
18104;SDS011;9179;50.968;3.134;2023-04-01T16:57:12;3.08;;;2.88;;
18104;SDS011;9179;50.968;3.134;2023-04-01T16:59:47;2.38;;;2.20;;
18104;SDS011;9179;50.968;3.134;2023-04-01T17:02:24;1.63;;;1.50;;
18104;SDS011;9179;50.968;3.134;2023-04-01T17:04:57;6.22;;;5.30;;
18104;SDS011;9179;50.968;3.134;2023-04-01T17:07:33;4.72;;;4.43;;
18104;SDS011;9179;50.968;3.134;2023-04-01T17:10:31;3.72;;;2.20;;
18104;SDS011;9179;50.968;3.134;2023-04-01T17:13:14;3.58;;;2.20;;
18104;SDS011;9179;50.968;3.134;2023-04-01T17:15:52;3.83;;;2.58;;
18104;SDS011;9179;50.968;3.134;2023-04-01T17:18:28;6.10;;;3.70;;
18104;SDS011;9179;50.968;3.134;2023-04-01T17:21:03;5.93;;;4.47;;